CheckWX is a tool to help pilots better visualize weather data.  It is not intended as a substitute for an official pre-flight weather briefing.

15:40:14 UTC

KBPK TAF
Baxter County Airport
Mountain Home, Arkansas, USA
KBPK 201120Z 2012/2112 VRB05KT P6SM SKC FM201800 12008G16KT P6SM SCT050 FM210000 12010G20KT P6SM VCTS SCT025CB BKN050 FM210600 12012G20KT P6SM BKN010 OVC025

May-20@
12:00 UTC

May-20 @ 12:00 UTC

May-20@
18:00 UTC

May-20 @ 18:00 UTC

KBPK 201120Z 2012/2112 VRB05KT P6SM SKC
Wind
  • Variable at 5 KTS
Cloud Levels
  • Clear skies

May-20@
18:00 UTC

May-20 @ 18:00 UTC

May-21@
00:00 UTC

May-21 @ 00:00 UTC

FM201800 12008G16KT P6SM SCT050

From

From Standard forecast or significant change

Wind
  • 120° at 8 KTS
  • {Gusting to 16 KTS
Cloud Levels
  • Scattered at 5,000' AGL

May-21@
00:00 UTC

May-21 @ 00:00 UTC

May-21@
06:00 UTC

May-21 @ 06:00 UTC

FM210000 12010G20KT P6SM VCTS SCT025CB BKN050

From

From Standard forecast or significant change

Wind
  • 120° at 10 KTS
  • {Gusting to 20 KTS
Conditions
Area Thunderstorm
Cloud Levels
  • Scattered at 2,500' AGL
  • Broken at 5,000' AGL

May-21@
06:00 UTC

May-21 @ 06:00 UTC

May-21@
12:00 UTC

May-21 @ 12:00 UTC

FM210600 12012G20KT P6SM BKN010 OVC025

From

From Standard forecast or significant change

Wind
  • 120° at 12 KTS
  • {Gusting to 20 KTS
Cloud Levels
  • Broken at 1,000' AGL
  • Overcast at 2,500' AGL